sensor_id;sensor_type;location;lat;lon;timestamp;P1;durP1;ratioP1;P2;durP2;ratioP2
12816;SDS011;6473;51.552;6.716;2023-05-16T00:00:36;4.10;;;3.13;;
12816;SDS011;6473;51.552;6.716;2023-05-16T00:03:04;4.00;;;2.70;;
12816;SDS011;6473;51.552;6.716;2023-05-16T00:05:31;4.40;;;2.63;;
12816;SDS011;6473;51.552;6.716;2023-05-16T00:08:00;6.72;;;2.85;;
12816;SDS011;6473;51.552;6.716;2023-05-16T00:10:26;4.93;;;2.88;;
12816;SDS011;6473;51.552;6.716;2023-05-16T00:12:53;4.90;;;2.70;;
12816;SDS011;6473;51.552;6.716;2023-05-16T00:15:20;5.30;;;2.85;;
12816;SDS011;6473;51.552;6.716;2023-05-16T00:17:47;3.80;;;2.83;;
12816;SDS011;6473;51.552;6.716;2023-05-16T00:20:14;3.90;;;2.95;;
12816;SDS011;6473;51.552;6.716;2023-05-16T00:22:47;4.13;;;2.88;;
12816;SDS011;6473;51.552;6.716;2023-05-16T00:25:15;4.20;;;3.20;;
12816;SDS011;6473;51.552;6.716;2023-05-16T00:27:42;3.58;;;3.10;;
12816;SDS011;6473;51.552;6.716;2023-05-16T00:30:09;6.05;;;3.10;;
12816;SDS011;6473;51.552;6.716;2023-05-16T00:32:36;7.15;;;3.20;;
12816;SDS011;6473;51.552;6.716;2023-05-16T00:35:04;4.72;;;3.00;;
12816;SDS011;6473;51.552;6.716;2023-05-16T00:37:34;6.80;;;3.30;;
12816;SDS011;6473;51.552;6.716;2023-05-16T00:40:01;3.30;;;2.78;;
12816;SDS011;6473;51.552;6.716;2023-05-16T00:42:31;5.95;;;2.92;;
12816;SDS011;6473;51.552;6.716;2023-05-16T00:44:58;7.28;;;3.50;;
12816;SDS011;6473;51.552;6.716;2023-05-16T00:47:27;6.53;;;3.28;;
12816;SDS011;6473;51.552;6.716;2023-05-16T00:49:53;7.30;;;3.38;;
12816;SDS011;6473;51.552;6.716;2023-05-16T00:52:20;6.95;;;3.20;;
12816;SDS011;6473;51.552;6.716;2023-05-16T00:54:47;12.43;;;3.17;;
12816;SDS011;6473;51.552;6.716;2023-05-16T00:57:16;6.82;;;3.00;;
12816;SDS011;6473;51.552;6.716;2023-05-16T00:59:45;4.75;;;2.90;;
12816;SDS011;6473;51.552;6.716;2023-05-16T01:02:13;7.18;;;2.97;;
12816;SDS011;6473;51.552;6.716;2023-05-16T01:04:40;6.05;;;2.90;;
12816;SDS011;6473;51.552;6.716;2023-05-16T01:07:09;4.95;;;2.63;;
12816;SDS011;6473;51.552;6.716;2023-05-16T01:09:36;9.23;;;3.40;;
12816;SDS011;6473;51.552;6.716;2023-05-16T01:12:07;5.15;;;2.55;;
12816;SDS011;6473;51.552;6.716;2023-05-16T01:14:45;4.90;;;2.67;;
12816;SDS011;6473;51.552;6.716;2023-05-16T01:17:20;5.55;;;2.88;;
12816;SDS011;6473;51.552;6.716;2023-05-16T01:19:56;6.22;;;2.47;;
12816;SDS011;6473;51.552;6.716;2023-05-16T01:22:35;7.93;;;2.97;;
12816;SDS011;6473;51.552;6.716;2023-05-16T01:25:16;10.23;;;3.13;;
12816;SDS011;6473;51.552;6.716;2023-05-16T01:27:54;6.57;;;2.80;;
12816;SDS011;6473;51.552;6.716;2023-05-16T01:30:24;9.48;;;3.20;;
12816;SDS011;6473;51.552;6.716;2023-05-16T01:32:51;6.55;;;3.22;;
12816;SDS011;6473;51.552;6.716;2023-05-16T01:35:18;6.80;;;3.05;;
12816;SDS011;6473;51.552;6.716;2023-05-16T01:37:48;8.10;;;2.80;;
12816;SDS011;6473;51.552;6.716;2023-05-16T01:40:23;7.85;;;3.40;;
12816;SDS011;6473;51.552;6.716;2023-05-16T01:42:56;12.00;;;3.10;;
12816;SDS011;6473;51.552;6.716;2023-05-16T01:45:28;9.60;;;3.33;;
12816;SDS011;6473;51.552;6.716;2023-05-16T01:47:58;8.52;;;3.03;;
12816;SDS011;6473;51.552;6.716;2023-05-16T01:50:31;9.73;;;2.85;;
12816;SDS011;6473;51.552;6.716;2023-05-16T01:53:02;9.18;;;3.20;;
12816;SDS011;6473;51.552;6.716;2023-05-16T01:55:36;8.48;;;3.28;;
12816;SDS011;6473;51.552;6.716;2023-05-16T01:58:09;7.72;;;2.92;;
12816;SDS011;6473;51.552;6.716;2023-05-16T02:00:38;9.93;;;3.05;;
12816;SDS011;6473;51.552;6.716;2023-05-16T02:03:05;8.57;;;3.17;;
12816;SDS011;6473;51.552;6.716;2023-05-16T02:05:32;10.43;;;2.85;;
12816;SDS011;6473;51.552;6.716;2023-05-16T02:08:00;9.82;;;3.42;;
12816;SDS011;6473;51.552;6.716;2023-05-16T02:10:28;8.35;;;3.13;;
12816;SDS011;6473;51.552;6.716;2023-05-16T02:12:58;9.43;;;2.97;;
12816;SDS011;6473;51.552;6.716;2023-05-16T02:15:27;10.20;;;3.67;;
12816;SDS011;6473;51.552;6.716;2023-05-16T02:17:54;6.30;;;2.90;;
12816;SDS011;6473;51.552;6.716;2023-05-16T02:20:22;9.50;;;3.45;;
12816;SDS011;6473;51.552;6.716;2023-05-16T02:22:49;16.10;;;3.90;;
12816;SDS011;6473;51.552;6.716;2023-05-16T02:25:16;9.55;;;3.22;;
12816;SDS011;6473;51.552;6.716;2023-05-16T02:27:44;9.10;;;3.17;;
12816;SDS011;6473;51.552;6.716;2023-05-16T02:30:11;11.50;;;2.92;;
12816;SDS011;6473;51.552;6.716;2023-05-16T02:32:40;9.50;;;2.80;;
12816;SDS011;6473;51.552;6.716;2023-05-16T02:35:09;10.90;;;3.17;;
12816;SDS011;6473;51.552;6.716;2023-05-16T02:37:36;11.52;;;3.67;;
12816;SDS011;6473;51.552;6.716;2023-05-16T02:40:03;11.15;;;3.28;;
12816;SDS011;6473;51.552;6.716;2023-05-16T02:42:31;9.60;;;2.97;;
12816;SDS011;6473;51.552;6.716;2023-05-16T02:44:58;6.13;;;2.42;;
12816;SDS011;6473;51.552;6.716;2023-05-16T02:47:25;8.77;;;2.90;;
12816;SDS011;6473;51.552;6.716;2023-05-16T02:49:54;12.98;;;3.50;;
12816;SDS011;6473;51.552;6.716;2023-05-16T02:52:21;6.63;;;2.55;;
12816;SDS011;6473;51.552;6.716;2023-05-16T02:54:48;10.30;;;2.90;;
12816;SDS011;6473;51.552;6.716;2023-05-16T02:57:15;9.35;;;2.55;;
12816;SDS011;6473;51.552;6.716;2023-05-16T02:59:42;5.85;;;2.30;;
12816;SDS011;6473;51.552;6.716;2023-05-16T03:02:09;8.15;;;2.70;;
12816;SDS011;6473;51.552;6.716;2023-05-16T03:04:36;13.88;;;2.90;;
12816;SDS011;6473;51.552;6.716;2023-05-16T03:07:06;10.32;;;2.88;;
12816;SDS011;6473;51.552;6.716;2023-05-16T03:09:33;14.05;;;4.03;;
12816;SDS011;6473;51.552;6.716;2023-05-16T03:12:00;9.73;;;2.75;;
12816;SDS011;6473;51.552;6.716;2023-05-16T03:14:27;11.30;;;2.83;;
12816;SDS011;6473;51.552;6.716;2023-05-16T03:16:54;12.30;;;2.95;;
12816;SDS011;6473;51.552;6.716;2023-05-16T03:19:21;7.82;;;2.97;;
12816;SDS011;6473;51.552;6.716;2023-05-16T03:21:48;8.10;;;2.70;;
12816;SDS011;6473;51.552;6.716;2023-05-16T03:24:16;10.15;;;2.65;;
12816;SDS011;6473;51.552;6.716;2023-05-16T03:26:45;17.15;;;2.90;;
12816;SDS011;6473;51.552;6.716;2023-05-16T03:29:12;8.13;;;2.60;;
12816;SDS011;6473;51.552;6.716;2023-05-16T03:31:39;13.50;;;3.25;;
12816;SDS011;6473;51.552;6.716;2023-05-16T03:34:07;9.15;;;3.15;;
12816;SDS011;6473;51.552;6.716;2023-05-16T03:36:34;10.77;;;2.55;;
12816;SDS011;6473;51.552;6.716;2023-05-16T03:39:01;9.65;;;2.92;;
12816;SDS011;6473;51.552;6.716;2023-05-16T03:41:29;12.30;;;2.70;;
12816;SDS011;6473;51.552;6.716;2023-05-16T03:43:56;11.15;;;2.58;;
12816;SDS011;6473;51.552;6.716;2023-05-16T03:46:23;6.90;;;2.72;;
12816;SDS011;6473;51.552;6.716;2023-05-16T03:48:50;11.77;;;2.80;;
12816;SDS011;6473;51.552;6.716;2023-05-16T03:51:17;6.20;;;2.25;;
12816;SDS011;6473;51.552;6.716;2023-05-16T03:53:44;9.30;;;2.67;;
12816;SDS011;6473;51.552;6.716;2023-05-16T03:56:11;13.05;;;3.00;;
12816;SDS011;6473;51.552;6.716;2023-05-16T03:58:39;6.82;;;2.80;;
12816;SDS011;6473;51.552;6.716;2023-05-16T04:01:06;7.55;;;2.70;;
12816;SDS011;6473;51.552;6.716;2023-05-16T04:03:33;12.73;;;3.03;;
12816;SDS011;6473;51.552;6.716;2023-05-16T04:06:02;17.95;;;3.08;;
12816;SDS011;6473;51.552;6.716;2023-05-16T04:08:30;14.85;;;2.90;;
12816;SDS011;6473;51.552;6.716;2023-05-16T04:10:56;9.90;;;2.85;;
12816;SDS011;6473;51.552;6.716;2023-05-16T04:13:23;8.55;;;2.72;;
12816;SDS011;6473;51.552;6.716;2023-05-16T04:15:52;13.50;;;2.20;;
12816;SDS011;6473;51.552;6.716;2023-05-16T04:18:19;13.00;;;3.60;;
12816;SDS011;6473;51.552;6.716;2023-05-16T04:20:45;11.68;;;2.97;;
12816;SDS011;6473;51.552;6.716;2023-05-16T04:23:12;10.45;;;2.60;;
12816;SDS011;6473;51.552;6.716;2023-05-16T04:25:40;7.18;;;2.17;;
12816;SDS011;6473;51.552;6.716;2023-05-16T04:28:07;9.88;;;2.50;;
12816;SDS011;6473;51.552;6.716;2023-05-16T04:30:34;12.43;;;2.85;;
12816;SDS011;6473;51.552;6.716;2023-05-16T04:33:03;8.63;;;2.35;;
12816;SDS011;6473;51.552;6.716;2023-05-16T04:35:30;9.95;;;2.60;;
12816;SDS011;6473;51.552;6.716;2023-05-16T04:37:57;9.02;;;2.83;;
12816;SDS011;6473;51.552;6.716;2023-05-16T04:40:24;7.65;;;2.38;;
12816;SDS011;6473;51.552;6.716;2023-05-16T04:42:51;10.48;;;2.80;;
12816;SDS011;6473;51.552;6.716;2023-05-16T04:45:21;7.70;;;2.40;;
12816;SDS011;6473;51.552;6.716;2023-05-16T04:47:49;12.55;;;2.33;;
12816;SDS011;6473;51.552;6.716;2023-05-16T04:50:18;15.73;;;2.67;;
12816;SDS011;6473;51.552;6.716;2023-05-16T04:52:45;11.00;;;2.40;;
12816;SDS011;6473;51.552;6.716;2023-05-16T04:55:12;6.18;;;2.15;;
12816;SDS011;6473;51.552;6.716;2023-05-16T04:57:39;5.60;;;1.98;;
12816;SDS011;6473;51.552;6.716;2023-05-16T05:00:06;9.35;;;3.00;;
12816;SDS011;6473;51.552;6.716;2023-05-16T05:02:36;12.13;;;2.50;;
12816;SDS011;6473;51.552;6.716;2023-05-16T05:05:04;8.48;;;2.55;;
12816;SDS011;6473;51.552;6.716;2023-05-16T05:07:34;9.80;;;2.35;;
12816;SDS011;6473;51.552;6.716;2023-05-16T05:10:06;10.52;;;2.95;;
12816;SDS011;6473;51.552;6.716;2023-05-16T05:12:33;9.95;;;2.50;;
12816;SDS011;6473;51.552;6.716;2023-05-16T05:15:01;9.65;;;2.80;;
12816;SDS011;6473;51.552;6.716;2023-05-16T05:17:28;8.38;;;2.60;;
12816;SDS011;6473;51.552;6.716;2023-05-16T05:19:55;13.45;;;2.97;;
12816;SDS011;6473;51.552;6.716;2023-05-16T05:26:19;6.95;;;2.17;;
12816;SDS011;6473;51.552;6.716;2023-05-16T05:28:47;9.50;;;2.35;;
12816;SDS011;6473;51.552;6.716;2023-05-16T05:31:15;11.55;;;3.20;;
12816;SDS011;6473;51.552;6.716;2023-05-16T05:33:42;10.38;;;2.78;;
12816;SDS011;6473;51.552;6.716;2023-05-16T05:36:10;13.77;;;2.80;;
12816;SDS011;6473;51.552;6.716;2023-05-16T05:38:37;9.10;;;3.00;;
12816;SDS011;6473;51.552;6.716;2023-05-16T05:41:04;12.23;;;2.45;;
12816;SDS011;6473;51.552;6.716;2023-05-16T05:43:33;9.68;;;2.35;;
12816;SDS011;6473;51.552;6.716;2023-05-16T05:46:00;9.95;;;2.58;;
12816;SDS011;6473;51.552;6.716;2023-05-16T05:48:27;9.65;;;2.58;;
12816;SDS011;6473;51.552;6.716;2023-05-16T05:50:54;7.10;;;2.30;;
12816;SDS011;6473;51.552;6.716;2023-05-16T05:53:21;5.90;;;2.28;;
12816;SDS011;6473;51.552;6.716;2023-05-16T05:55:49;9.65;;;2.35;;
12816;SDS011;6473;51.552;6.716;2023-05-16T05:58:16;6.40;;;1.83;;
12816;SDS011;6473;51.552;6.716;2023-05-16T06:00:45;7.72;;;2.10;;
12816;SDS011;6473;51.552;6.716;2023-05-16T06:03:13;5.57;;;1.80;;
12816;SDS011;6473;51.552;6.716;2023-05-16T06:05:40;5.80;;;1.70;;
12816;SDS011;6473;51.552;6.716;2023-05-16T06:08:07;7.80;;;2.40;;
12816;SDS011;6473;51.552;6.716;2023-05-16T06:10:34;8.10;;;1.80;;
12816;SDS011;6473;51.552;6.716;2023-05-16T06:13:01;5.85;;;2.10;;
12816;SDS011;6473;51.552;6.716;2023-05-16T06:15:28;10.73;;;2.42;;
12816;SDS011;6473;51.552;6.716;2023-05-16T06:17:57;5.60;;;1.75;;
12816;SDS011;6473;51.552;6.716;2023-05-16T06:20:24;5.53;;;2.75;;
12816;SDS011;6473;51.552;6.716;2023-05-16T06:22:51;10.73;;;2.00;;
12816;SDS011;6473;51.552;6.716;2023-05-16T06:25:20;6.03;;;2.22;;
12816;SDS011;6473;51.552;6.716;2023-05-16T06:27:48;8.50;;;1.95;;
12816;SDS011;6473;51.552;6.716;2023-05-16T06:30:15;5.18;;;1.67;;
12816;SDS011;6473;51.552;6.716;2023-05-16T06:32:42;7.82;;;2.03;;
12816;SDS011;6473;51.552;6.716;2023-05-16T06:35:11;6.00;;;2.20;;
12816;SDS011;6473;51.552;6.716;2023-05-16T06:37:38;4.68;;;1.73;;
12816;SDS011;6473;51.552;6.716;2023-05-16T06:40:05;7.82;;;1.77;;
12816;SDS011;6473;51.552;6.716;2023-05-16T06:42:33;6.63;;;1.58;;
12816;SDS011;6473;51.552;6.716;2023-05-16T06:45:00;5.63;;;2.10;;
12816;SDS011;6473;51.552;6.716;2023-05-16T06:47:27;7.07;;;1.75;;
12816;SDS011;6473;51.552;6.716;2023-05-16T06:49:53;4.45;;;1.60;;
12816;SDS011;6473;51.552;6.716;2023-05-16T06:52:22;6.68;;;1.88;;
12816;SDS011;6473;51.552;6.716;2023-05-16T06:54:48;5.28;;;1.55;;
12816;SDS011;6473;51.552;6.716;2023-05-16T06:57:16;4.97;;;1.30;;
12816;SDS011;6473;51.552;6.716;2023-05-16T06:59:43;7.13;;;1.65;;
12816;SDS011;6473;51.552;6.716;2023-05-16T07:02:10;4.90;;;1.85;;
12816;SDS011;6473;51.552;6.716;2023-05-16T07:04:36;7.35;;;1.45;;
12816;SDS011;6473;51.552;6.716;2023-05-16T07:07:04;7.28;;;1.95;;
12816;SDS011;6473;51.552;6.716;2023-05-16T07:09:37;5.00;;;1.75;;
12816;SDS011;6473;51.552;6.716;2023-05-16T07:12:04;8.43;;;1.92;;
12816;SDS011;6473;51.552;6.716;2023-05-16T07:14:31;7.10;;;1.80;;
12816;SDS011;6473;51.552;6.716;2023-05-16T07:16:58;5.57;;;2.00;;
12816;SDS011;6473;51.552;6.716;2023-05-16T07:19:25;4.60;;;1.65;;
12816;SDS011;6473;51.552;6.716;2023-05-16T07:21:52;5.13;;;1.63;;
12816;SDS011;6473;51.552;6.716;2023-05-16T07:24:19;3.28;;;1.50;;
12816;SDS011;6473;51.552;6.716;2023-05-16T07:26:47;6.50;;;2.05;;
12816;SDS011;6473;51.552;6.716;2023-05-16T07:29:15;4.28;;;1.45;;
12816;SDS011;6473;51.552;6.716;2023-05-16T07:31:42;2.30;;;1.40;;
12816;SDS011;6473;51.552;6.716;2023-05-16T07:34:09;4.35;;;1.58;;
12816;SDS011;6473;51.552;6.716;2023-05-16T07:36:36;6.68;;;1.60;;
12816;SDS011;6473;51.552;6.716;2023-05-16T07:39:03;5.13;;;2.03;;
12816;SDS011;6473;51.552;6.716;2023-05-16T07:41:30;4.63;;;1.73;;
12816;SDS011;6473;51.552;6.716;2023-05-16T07:43:59;5.75;;;1.50;;
12816;SDS011;6473;51.552;6.716;2023-05-16T07:46:26;18.27;;;2.95;;
12816;SDS011;6473;51.552;6.716;2023-05-16T07:48:53;3.58;;;1.45;;
12816;SDS011;6473;51.552;6.716;2023-05-16T07:51:20;3.40;;;1.33;;
12816;SDS011;6473;51.552;6.716;2023-05-16T07:53:46;9.20;;;1.63;;
12816;SDS011;6473;51.552;6.716;2023-05-16T07:56:16;1.92;;;1.40;;
12816;SDS011;6473;51.552;6.716;2023-05-16T07:58:43;6.45;;;1.40;;
12816;SDS011;6473;51.552;6.716;2023-05-16T08:01:15;4.40;;;1.33;;
12816;SDS011;6473;51.552;6.716;2023-05-16T08:03:42;6.93;;;1.77;;
12816;SDS011;6473;51.552;6.716;2023-05-16T08:06:10;4.97;;;1.63;;
12816;SDS011;6473;51.552;6.716;2023-05-16T08:08:37;4.78;;;1.77;;
12816;SDS011;6473;51.552;6.716;2023-05-16T08:11:04;5.60;;;1.65;;
12816;SDS011;6473;51.552;6.716;2023-05-16T08:13:31;5.20;;;1.70;;
12816;SDS011;6473;51.552;6.716;2023-05-16T08:15:58;5.03;;;1.67;;
12816;SDS011;6473;51.552;6.716;2023-05-16T08:18:26;4.78;;;1.60;;
12816;SDS011;6473;51.552;6.716;2023-05-16T08:20:53;5.22;;;1.63;;
12816;SDS011;6473;51.552;6.716;2023-05-16T08:23:20;7.32;;;1.73;;
12816;SDS011;6473;51.552;6.716;2023-05-16T08:25:47;4.82;;;1.30;;
12816;SDS011;6473;51.552;6.716;2023-05-16T08:28:14;3.88;;;1.42;;
12816;SDS011;6473;51.552;6.716;2023-05-16T08:30:41;4.38;;;1.27;;
12816;SDS011;6473;51.552;6.716;2023-05-16T08:33:08;6.55;;;1.63;;
12816;SDS011;6473;51.552;6.716;2023-05-16T08:35:36;6.82;;;1.60;;
12816;SDS011;6473;51.552;6.716;2023-05-16T08:38:08;5.18;;;1.20;;
12816;SDS011;6473;51.552;6.716;2023-05-16T08:40:35;3.45;;;1.08;;
12816;SDS011;6473;51.552;6.716;2023-05-16T08:43:02;6.38;;;1.48;;
12816;SDS011;6473;51.552;6.716;2023-05-16T08:45:29;2.55;;;1.48;;
12816;SDS011;6473;51.552;6.716;2023-05-16T08:47:57;8.82;;;2.03;;
12816;SDS011;6473;51.552;6.716;2023-05-16T08:50:28;4.60;;;1.52;;
12816;SDS011;6473;51.552;6.716;2023-05-16T08:52:58;5.93;;;1.85;;
12816;SDS011;6473;51.552;6.716;2023-05-16T08:55:31;4.32;;;1.45;;
12816;SDS011;6473;51.552;6.716;2023-05-16T08:57:58;2.35;;;1.50;;
12816;SDS011;6473;51.552;6.716;2023-05-16T09:00:26;5.45;;;1.63;;
12816;SDS011;6473;51.552;6.716;2023-05-16T09:02:53;2.92;;;1.02;;
12816;SDS011;6473;51.552;6.716;2023-05-16T09:05:20;4.00;;;1.20;;
12816;SDS011;6473;51.552;6.716;2023-05-16T09:07:48;5.50;;;1.30;;
12816;SDS011;6473;51.552;6.716;2023-05-16T09:10:16;3.25;;;1.30;;
12816;SDS011;6473;51.552;6.716;2023-05-16T09:12:43;3.53;;;1.20;;
12816;SDS011;6473;51.552;6.716;2023-05-16T09:15:10;4.88;;;1.45;;
12816;SDS011;6473;51.552;6.716;2023-05-16T09:17:38;4.93;;;1.27;;
12816;SDS011;6473;51.552;6.716;2023-05-16T09:20:09;3.72;;;1.00;;
12816;SDS011;6473;51.552;6.716;2023-05-16T09:22:38;3.72;;;1.02;;
12816;SDS011;6473;51.552;6.716;2023-05-16T09:25:06;5.75;;;1.60;;
12816;SDS011;6473;51.552;6.716;2023-05-16T09:27:35;4.30;;;1.55;;
12816;SDS011;6473;51.552;6.716;2023-05-16T09:30:02;4.35;;;1.30;;
12816;SDS011;6473;51.552;6.716;2023-05-16T09:32:30;7.30;;;1.52;;
12816;SDS011;6473;51.552;6.716;2023-05-16T09:34:57;4.32;;;1.48;;
12816;SDS011;6473;51.552;6.716;2023-05-16T09:37:24;7.38;;;1.77;;
12816;SDS011;6473;51.552;6.716;2023-05-16T09:39:51;7.25;;;1.73;;
12816;SDS011;6473;51.552;6.716;2023-05-16T09:42:19;4.47;;;1.55;;
12816;SDS011;6473;51.552;6.716;2023-05-16T09:44:49;4.93;;;1.75;;
12816;SDS011;6473;51.552;6.716;2023-05-16T09:47:17;5.05;;;2.33;;
12816;SDS011;6473;51.552;6.716;2023-05-16T09:49:45;5.28;;;1.40;;
12816;SDS011;6473;51.552;6.716;2023-05-16T09:52:13;5.28;;;1.50;;
12816;SDS011;6473;51.552;6.716;2023-05-16T09:54:41;5.22;;;1.80;;
12816;SDS011;6473;51.552;6.716;2023-05-16T09:57:09;4.25;;;1.40;;
12816;SDS011;6473;51.552;6.716;2023-05-16T09:59:36;6.53;;;2.03;;
12816;SDS011;6473;51.552;6.716;2023-05-16T10:02:06;4.57;;;1.67;;
12816;SDS011;6473;51.552;6.716;2023-05-16T10:04:33;4.68;;;1.60;;
12816;SDS011;6473;51.552;6.716;2023-05-16T10:07:01;3.25;;;1.52;;
12816;SDS011;6473;51.552;6.716;2023-05-16T10:09:30;3.35;;;1.30;;
12816;SDS011;6473;51.552;6.716;2023-05-16T10:11:59;5.20;;;1.70;;
12816;SDS011;6473;51.552;6.716;2023-05-16T10:14:29;4.50;;;1.45;;
12816;SDS011;6473;51.552;6.716;2023-05-16T10:17:00;4.28;;;1.33;;
12816;SDS011;6473;51.552;6.716;2023-05-16T10:19:30;20.67;;;3.00;;
12816;SDS011;6473;51.552;6.716;2023-05-16T10:22:03;2.75;;;1.20;;
12816;SDS011;6473;51.552;6.716;2023-05-16T10:24:36;1.33;;;0.77;;
12816;SDS011;6473;51.552;6.716;2023-05-16T10:27:07;2.53;;;0.90;;
12816;SDS011;6473;51.552;6.716;2023-05-16T10:29:35;1.45;;;0.80;;
12816;SDS011;6473;51.552;6.716;2023-05-16T10:32:04;1.75;;;0.90;;
12816;SDS011;6473;51.552;6.716;2023-05-16T10:34:33;3.08;;;0.80;;
12816;SDS011;6473;51.552;6.716;2023-05-16T10:37:01;0.80;;;0.60;;
12816;SDS011;6473;51.552;6.716;2023-05-16T10:39:30;2.83;;;0.90;;
12816;SDS011;6473;51.552;6.716;2023-05-16T10:41:58;1.00;;;0.82;;
12816;SDS011;6473;51.552;6.716;2023-05-16T10:44:25;3.17;;;0.60;;
12816;SDS011;6473;51.552;6.716;2023-05-16T10:46:57;7.47;;;1.48;;
12816;SDS011;6473;51.552;6.716;2023-05-16T10:49:24;3.60;;;0.80;;
12816;SDS011;6473;51.552;6.716;2023-05-16T10:52:04;1.33;;;0.93;;
12816;SDS011;6473;51.552;6.716;2023-05-16T10:54:34;1.67;;;0.90;;
12816;SDS011;6473;51.552;6.716;2023-05-16T10:57:03;1.63;;;0.75;;
12816;SDS011;6473;51.552;6.716;2023-05-16T10:59:39;1.13;;;0.93;;
12816;SDS011;6473;51.552;6.716;2023-05-16T11:02:21;4.05;;;1.10;;
12816;SDS011;6473;51.552;6.716;2023-05-16T11:04:50;3.05;;;0.95;;
12816;SDS011;6473;51.552;6.716;2023-05-16T11:07:20;3.42;;;1.02;;
12816;SDS011;6473;51.552;6.716;2023-05-16T11:10:01;2.03;;;1.08;;
12816;SDS011;6473;51.552;6.716;2023-05-16T11:12:37;2.80;;;1.00;;
12816;SDS011;6473;51.552;6.716;2023-05-16T11:15:19;4.97;;;1.48;;
12816;SDS011;6473;51.552;6.716;2023-05-16T11:17:49;7.97;;;1.92;;
12816;SDS011;6473;51.552;6.716;2023-05-16T11:20:25;2.70;;;1.10;;
12816;SDS011;6473;51.552;6.716;2023-05-16T11:25:46;5.22;;;1.20;;
12816;SDS011;6473;51.552;6.716;2023-05-16T11:28:15;2.78;;;0.85;;
12816;SDS011;6473;51.552;6.716;2023-05-16T11:30:44;4.07;;;1.27;;
12816;SDS011;6473;51.552;6.716;2023-05-16T11:33:13;4.07;;;1.25;;
12816;SDS011;6473;51.552;6.716;2023-05-16T11:35:41;3.80;;;1.38;;
12816;SDS011;6473;51.552;6.716;2023-05-16T11:38:11;2.15;;;1.10;;
12816;SDS011;6473;51.552;6.716;2023-05-16T11:40:44;1.70;;;0.80;;
12816;SDS011;6473;51.552;6.716;2023-05-16T11:43:16;1.52;;;1.00;;
12816;SDS011;6473;51.552;6.716;2023-05-16T11:45:44;1.30;;;0.90;;
12816;SDS011;6473;51.552;6.716;2023-05-16T11:48:11;1.77;;;0.70;;
12816;SDS011;6473;51.552;6.716;2023-05-16T11:50:38;1.83;;;0.65;;
12816;SDS011;6473;51.552;6.716;2023-05-16T11:53:05;1.10;;;0.82;;
12816;SDS011;6473;51.552;6.716;2023-05-16T11:55:33;1.25;;;0.57;;
12816;SDS011;6473;51.552;6.716;2023-05-16T11:58:02;1.50;;;0.70;;
12816;SDS011;6473;51.552;6.716;2023-05-16T12:00:29;2.63;;;0.95;;
12816;SDS011;6473;51.552;6.716;2023-05-16T12:03:00;3.47;;;1.23;;
12816;SDS011;6473;51.552;6.716;2023-05-16T12:05:28;1.85;;;1.13;;
12816;SDS011;6473;51.552;6.716;2023-05-16T12:07:56;2.17;;;0.90;;
12816;SDS011;6473;51.552;6.716;2023-05-16T12:10:23;1.42;;;1.13;;
12816;SDS011;6473;51.552;6.716;2023-05-16T12:12:52;1.75;;;0.85;;
12816;SDS011;6473;51.552;6.716;2023-05-16T12:15:20;2.13;;;1.08;;
12816;SDS011;6473;51.552;6.716;2023-05-16T12:17:48;3.28;;;0.95;;
12816;SDS011;6473;51.552;6.716;2023-05-16T12:20:16;2.40;;;1.00;;
12816;SDS011;6473;51.552;6.716;2023-05-16T12:22:44;0.93;;;0.80;;
12816;SDS011;6473;51.552;6.716;2023-05-16T12:25:20;2.35;;;0.80;;
12816;SDS011;6473;51.552;6.716;2023-05-16T12:27:48;2.70;;;0.70;;
12816;SDS011;6473;51.552;6.716;2023-05-16T12:30:15;2.00;;;0.82;;
12816;SDS011;6473;51.552;6.716;2023-05-16T12:32:44;2.50;;;0.80;;
12816;SDS011;6473;51.552;6.716;2023-05-16T12:35:11;1.83;;;0.80;;
12816;SDS011;6473;51.552;6.716;2023-05-16T12:37:38;3.92;;;1.00;;
12816;SDS011;6473;51.552;6.716;2023-05-16T12:40:06;1.98;;;0.88;;
12816;SDS011;6473;51.552;6.716;2023-05-16T12:42:37;1.20;;;0.70;;
12816;SDS011;6473;51.552;6.716;2023-05-16T12:45:04;2.90;;;1.13;;
12816;SDS011;6473;51.552;6.716;2023-05-16T12:47:39;3.75;;;1.13;;
12816;SDS011;6473;51.552;6.716;2023-05-16T12:50:09;2.20;;;0.93;;
12816;SDS011;6473;51.552;6.716;2023-05-16T12:52:45;3.90;;;1.10;;
12816;SDS011;6473;51.552;6.716;2023-05-16T12:55:13;1.70;;;1.00;;
12816;SDS011;6473;51.552;6.716;2023-05-16T12:57:41;1.85;;;1.10;;
12816;SDS011;6473;51.552;6.716;2023-05-16T13:00:09;3.03;;;1.05;;
12816;SDS011;6473;51.552;6.716;2023-05-16T13:02:37;1.52;;;1.05;;
12816;SDS011;6473;51.552;6.716;2023-05-16T13:05:04;4.05;;;1.10;;
12816;SDS011;6473;51.552;6.716;2023-05-16T13:07:34;5.57;;;1.40;;
12816;SDS011;6473;51.552;6.716;2023-05-16T13:10:01;2.72;;;1.35;;
12816;SDS011;6473;51.552;6.716;2023-05-16T13:12:30;2.05;;;1.10;;
12816;SDS011;6473;51.552;6.716;2023-05-16T13:14:57;1.65;;;1.27;;
12816;SDS011;6473;51.552;6.716;2023-05-16T13:17:24;2.30;;;1.17;;
12816;SDS011;6473;51.552;6.716;2023-05-16T13:19:51;2.75;;;1.20;;
12816;SDS011;6473;51.552;6.716;2023-05-16T13:22:18;1.90;;;1.10;;
12816;SDS011;6473;51.552;6.716;2023-05-16T13:24:46;1.90;;;1.20;;
12816;SDS011;6473;51.552;6.716;2023-05-16T13:27:14;2.20;;;1.02;;
12816;SDS011;6473;51.552;6.716;2023-05-16T13:29:42;3.80;;;1.77;;
12816;SDS011;6473;51.552;6.716;2023-05-16T13:32:09;2.17;;;1.20;;
12816;SDS011;6473;51.552;6.716;2023-05-16T13:34:36;2.92;;;1.20;;
12816;SDS011;6473;51.552;6.716;2023-05-16T13:37:03;2.63;;;1.25;;
12816;SDS011;6473;51.552;6.716;2023-05-16T13:39:30;3.05;;;1.45;;
12816;SDS011;6473;51.552;6.716;2023-05-16T13:42:01;3.13;;;1.20;;
12816;SDS011;6473;51.552;6.716;2023-05-16T13:44:29;3.25;;;1.40;;
12816;SDS011;6473;51.552;6.716;2023-05-16T13:46:57;3.60;;;1.10;;
12816;SDS011;6473;51.552;6.716;2023-05-16T13:49:24;3.85;;;1.52;;
12816;SDS011;6473;51.552;6.716;2023-05-16T13:51:51;4.25;;;1.33;;
12816;SDS011;6473;51.552;6.716;2023-05-16T13:54:22;1.70;;;1.25;;
12816;SDS011;6473;51.552;6.716;2023-05-16T13:56:49;3.47;;;1.70;;
12816;SDS011;6473;51.552;6.716;2023-05-16T13:59:17;5.18;;;1.38;;
12816;SDS011;6473;51.552;6.716;2023-05-16T14:01:44;3.63;;;1.52;;
12816;SDS011;6473;51.552;6.716;2023-05-16T14:04:11;3.40;;;1.58;;
12816;SDS011;6473;51.552;6.716;2023-05-16T14:06:38;1.42;;;1.02;;
12816;SDS011;6473;51.552;6.716;2023-05-16T14:09:05;2.90;;;1.33;;
12816;SDS011;6473;51.552;6.716;2023-05-16T14:11:32;1.65;;;1.20;;
12816;SDS011;6473;51.552;6.716;2023-05-16T14:13:59;3.97;;;1.70;;
12816;SDS011;6473;51.552;6.716;2023-05-16T14:16:27;1.60;;;1.13;;
12816;SDS011;6473;51.552;6.716;2023-05-16T14:18:55;2.05;;;1.20;;
12816;SDS011;6473;51.552;6.716;2023-05-16T14:21:22;2.30;;;1.50;;
12816;SDS011;6473;51.552;6.716;2023-05-16T14:23:48;4.72;;;1.27;;
12816;SDS011;6473;51.552;6.716;2023-05-16T14:26:15;2.50;;;1.45;;
12816;SDS011;6473;51.552;6.716;2023-05-16T14:28:46;1.88;;;1.40;;
12816;SDS011;6473;51.552;6.716;2023-05-16T14:31:13;4.30;;;1.52;;
12816;SDS011;6473;51.552;6.716;2023-05-16T14:33:41;1.67;;;1.00;;
12816;SDS011;6473;51.552;6.716;2023-05-16T14:36:08;3.25;;;1.48;;
12816;SDS011;6473;51.552;6.716;2023-05-16T14:38:35;2.28;;;1.65;;
12816;SDS011;6473;51.552;6.716;2023-05-16T14:41:02;3.42;;;1.45;;
12816;SDS011;6473;51.552;6.716;2023-05-16T14:43:29;1.98;;;1.17;;
12816;SDS011;6473;51.552;6.716;2023-05-16T14:45:56;4.88;;;1.65;;
12816;SDS011;6473;51.552;6.716;2023-05-16T14:48:23;2.70;;;1.48;;
12816;SDS011;6473;51.552;6.716;2023-05-16T14:50:51;3.47;;;1.52;;
12816;SDS011;6473;51.552;6.716;2023-05-16T14:53:18;4.00;;;2.30;;
12816;SDS011;6473;51.552;6.716;2023-05-16T14:55:46;2.92;;;1.58;;
12816;SDS011;6473;51.552;6.716;2023-05-16T14:58:13;2.85;;;1.48;;
12816;SDS011;6473;51.552;6.716;2023-05-16T15:00:40;4.10;;;1.60;;
12816;SDS011;6473;51.552;6.716;2023-05-16T15:03:06;3.92;;;1.58;;
12816;SDS011;6473;51.552;6.716;2023-05-16T15:05:33;4.82;;;1.60;;
12816;SDS011;6473;51.552;6.716;2023-05-16T15:08:02;2.50;;;1.30;;
12816;SDS011;6473;51.552;6.716;2023-05-16T15:10:30;2.92;;;1.52;;
12816;SDS011;6473;51.552;6.716;2023-05-16T15:12:56;4.78;;;1.40;;